sensor_id;sensor_type;location;lat;lon;timestamp;pressure;altitude;pressure_sealevel;temperature;humidity
59513;BME280;45330;51.634;5.562;2023-04-01T00:01:05;99031.34;;;8.43;100.00
59513;BME280;45330;51.634;5.562;2023-04-01T00:03:31;99056.03;;;8.57;100.00
59513;BME280;45330;51.634;5.562;2023-04-01T00:05:58;99030.44;;;8.44;100.00
59513;BME280;45330;51.634;5.562;2023-04-01T00:08:24;99064.69;;;8.58;100.00
59513;BME280;45330;51.634;5.562;2023-04-01T00:10:50;99062.97;;;8.57;100.00
59513;BME280;45330;51.634;5.562;2023-04-01T00:13:16;99056.03;;;8.57;100.00
59513;BME280;45330;51.634;5.562;2023-04-01T00:15:43;99045.13;;;8.45;100.00
59513;BME280;45330;51.634;5.562;2023-04-01T00:18:08;99029.69;;;8.40;100.00
59513;BME280;45330;51.634;5.562;2023-04-01T00:20:34;99067.28;;;8.58;100.00
59513;BME280;45330;51.634;5.562;2023-04-01T00:23:00;99065.56;;;8.57;100.00
59513;BME280;45330;51.634;5.562;2023-04-01T00:25:25;99063.97;;;8.51;100.00
59513;BME280;45330;51.634;5.562;2023-04-01T00:27:51;99061.25;;;8.56;100.00
59513;BME280;45330;51.634;5.562;2023-04-01T00:30:17;99042.59;;;8.41;100.00
59513;BME280;45330;51.634;5.562;2023-04-01T00:32:42;99066.41;;;8.57;100.00
59513;BME280;45330;51.634;5.562;2023-04-01T00:35:08;99057.09;;;8.50;100.00
59513;BME280;45330;51.634;5.562;2023-04-01T00:37:35;99063.94;;;8.53;100.00
59513;BME280;45330;51.634;5.562;2023-04-01T00:40:03;99067.31;;;8.55;100.00
59513;BME280;45330;51.634;5.562;2023-04-01T00:42:29;99077.69;;;8.56;100.00
59513;BME280;45330;51.634;5.562;2023-04-01T00:44:55;99068.25;;;8.54;100.00
59513;BME280;45330;51.634;5.562;2023-04-01T00:47:21;99078.56;;;8.55;100.00
59513;BME280;45330;51.634;5.562;2023-04-01T00:49:51;99054.81;;;8.36;100.00
59513;BME280;45330;51.634;5.562;2023-04-01T00:52:21;99080.28;;;8.55;100.00
59513;BME280;45330;51.634;5.562;2023-04-01T00:54:49;99058.16;;;8.41;100.00
59513;BME280;45330;51.634;5.562;2023-04-01T00:57:20;99054.81;;;8.36;100.00
59513;BME280;45330;51.634;5.562;2023-04-01T00:59:49;99062.50;;;8.39;100.00
59513;BME280;45330;51.634;5.562;2023-04-01T01:02:18;99068.53;;;8.41;100.00
59513;BME280;45330;51.634;5.562;2023-04-01T01:04:44;99066.81;;;8.40;100.00
59513;BME280;45330;51.634;5.562;2023-04-01T01:09:52;99087.13;;;8.57;100.00
59513;BME280;45330;51.634;5.562;2023-04-01T01:12:30;99077.09;;;8.44;100.00
59513;BME280;45330;51.634;5.562;2023-04-01T01:18:11;99095.84;;;8.55;100.00
59513;BME280;45330;51.634;5.562;2023-04-01T01:21:10;99099.25;;;8.57;100.00
59513;BME280;45330;51.634;5.562;2023-04-01T01:26:40;99073.78;;;8.38;100.00
59513;BME280;45330;51.634;5.562;2023-04-01T01:32:05;99105.34;;;8.56;100.00
59513;BME280;45330;51.634;5.562;2023-04-01T01:37:16;99105.38;;;8.54;100.00
59513;BME280;45330;51.634;5.562;2023-04-01T01:39:44;99085.78;;;8.43;100.00
59513;BME280;45330;51.634;5.562;2023-04-01T01:42:14;99094.38;;;8.45;100.00
59513;BME280;45330;51.634;5.562;2023-04-01T01:44:42;99092.72;;;8.40;100.00
59513;BME280;45330;51.634;5.562;2023-04-01T01:47:10;99113.28;;;8.50;100.00
59513;BME280;45330;51.634;5.562;2023-04-01T01:49:38;99125.31;;;8.51;100.00
59513;BME280;45330;51.634;5.562;2023-04-01T01:52:05;99130.47;;;8.54;100.00
59513;BME280;45330;51.634;5.562;2023-04-01T01:54:31;99103.97;;;8.41;100.00
59513;BME280;45330;51.634;5.562;2023-04-01T01:57:04;99122.81;;;8.48;100.00
59513;BME280;45330;51.634;5.562;2023-04-01T01:59:32;99105.81;;;8.36;100.00
59513;BME280;45330;51.634;5.562;2023-04-01T02:01:59;99128.75;;;8.53;100.00
59513;BME280;45330;51.634;5.562;2023-04-01T02:04:25;99127.97;;;8.49;100.00
59513;BME280;45330;51.634;5.562;2023-04-01T02:07:02;99128.91;;;8.47;100.00
59513;BME280;45330;51.634;5.562;2023-04-01T02:09:28;99122.91;;;8.43;100.00
59513;BME280;45330;51.634;5.562;2023-04-01T02:12:04;99128.91;;;8.47;100.00
59513;BME280;45330;51.634;5.562;2023-04-01T02:14:41;99111.00;;;8.36;100.00
59513;BME280;45330;51.634;5.562;2023-04-01T02:17:15;99148.66;;;8.51;100.00
59513;BME280;45330;51.634;5.562;2023-04-01T02:19:57;99135.78;;;8.48;100.00
59513;BME280;45330;51.634;5.562;2023-04-01T02:22:27;99120.56;;;8.32;100.00
59513;BME280;45330;51.634;5.562;2023-04-01T02:24:56;99139.44;;;8.39;100.00
59513;BME280;45330;51.634;5.562;2023-04-01T02:27:23;99142.75;;;8.46;100.00
59513;BME280;45330;51.634;5.562;2023-04-01T02:29:50;99147.06;;;8.45;100.00
59513;BME280;45330;51.634;5.562;2023-04-01T02:32:16;99129.25;;;8.31;100.00
59513;BME280;45330;51.634;5.562;2023-04-01T02:34:42;99125.09;;;8.26;100.00
59513;BME280;45330;51.634;5.562;2023-04-01T02:37:08;99149.88;;;8.36;100.00
59513;BME280;45330;51.634;5.562;2023-04-01T02:39:33;99148.19;;;8.33;100.00
59513;BME280;45330;51.634;5.562;2023-04-01T02:41:59;99145.81;;;8.24;100.00
59513;BME280;45330;51.634;5.562;2023-04-01T02:44:25;99137.28;;;8.20;100.00
59513;BME280;45330;51.634;5.562;2023-04-01T02:46:51;99153.47;;;8.30;100.00
59513;BME280;45330;51.634;5.562;2023-04-01T02:49:17;99131.41;;;8.14;100.00
59513;BME280;45330;51.634;5.562;2023-04-01T02:51:42;99140.03;;;8.13;100.00
59513;BME280;45330;51.634;5.562;2023-04-01T02:54:08;99158.78;;;8.26;100.00
59513;BME280;45330;51.634;5.562;2023-04-01T02:56:33;99153.72;;;8.19;100.00
59513;BME280;45330;51.634;5.562;2023-04-01T02:58:59;99138.41;;;8.08;100.00
59513;BME280;45330;51.634;5.562;2023-04-01T03:01:24;99145.97;;;8.18;100.00
59513;BME280;45330;51.634;5.562;2023-04-01T03:03:50;99165.75;;;8.22;100.00
59513;BME280;45330;51.634;5.562;2023-04-01T03:06:16;99165.75;;;8.22;100.00
59513;BME280;45330;51.634;5.562;2023-04-01T03:08:41;99159.00;;;8.15;100.00
59513;BME280;45330;51.634;5.562;2023-04-01T03:11:07;99165.00;;;8.17;100.00
59513;BME280;45330;51.634;5.562;2023-04-01T03:13:32;99160.72;;;8.16;100.00
59513;BME280;45330;51.634;5.562;2023-04-01T03:15:58;99171.88;;;8.18;100.00
59513;BME280;45330;51.634;5.562;2023-04-01T03:18:23;99149.69;;;8.07;100.00
59513;BME280;45330;51.634;5.562;2023-04-01T03:20:49;99171.81;;;8.21;100.00
59513;BME280;45330;51.634;5.562;2023-04-01T03:23:15;99178.69;;;8.22;100.00
59513;BME280;45330;51.634;5.562;2023-04-01T03:25:42;99159.13;;;8.08;100.00
59513;BME280;45330;51.634;5.562;2023-04-01T03:28:08;99176.19;;;8.19;100.00
59513;BME280;45330;51.634;5.562;2023-04-01T03:30:33;99165.16;;;8.11;100.00
59513;BME280;45330;51.634;5.562;2023-04-01T03:32:59;99166.81;;;8.13;100.00
59513;BME280;45330;51.634;5.562;2023-04-01T03:35:26;99151.47;;;8.04;100.00
59513;BME280;45330;51.634;5.562;2023-04-01T03:37:52;99177.06;;;8.18;100.00
59513;BME280;45330;51.634;5.562;2023-04-01T03:40:17;99181.38;;;8.19;100.00
59513;BME280;45330;51.634;5.562;2023-04-01T03:42:43;99183.09;;;8.20;100.00
59513;BME280;45330;51.634;5.562;2023-04-01T03:45:09;99177.19;;;8.13;100.00
59513;BME280;45330;51.634;5.562;2023-04-01T03:47:35;99169.50;;;8.08;100.00
59513;BME280;45330;51.634;5.562;2023-04-01T03:50:01;99167.75;;;8.11;100.00
59513;BME280;45330;51.634;5.562;2023-04-01T03:52:26;99166.19;;;8.03;100.00
59513;BME280;45330;51.634;5.562;2023-04-01T03:54:51;99186.63;;;8.16;100.00
59513;BME280;45330;51.634;5.562;2023-04-01T03:57:17;99189.22;;;8.14;100.00
59513;BME280;45330;51.634;5.562;2023-04-01T03:59:42;99184.19;;;8.08;100.00
59513;BME280;45330;51.634;5.562;2023-04-01T04:02:07;99181.75;;;8.02;100.00
59513;BME280;45330;51.634;5.562;2023-04-01T04:04:33;99195.47;;;8.05;100.00
59513;BME280;45330;51.634;5.562;2023-04-01T04:06:58;99197.19;;;8.06;100.00
59513;BME280;45330;51.634;5.562;2023-04-01T04:09:24;99196.38;;;8.04;100.00
59513;BME280;45330;51.634;5.562;2023-04-01T04:11:50;99198.91;;;8.07;100.00
59513;BME280;45330;51.634;5.562;2023-04-01T04:14:16;99176.81;;;7.91;100.00
59513;BME280;45330;51.634;5.562;2023-04-01T04:16:41;99196.44;;;8.01;100.00
59513;BME280;45330;51.634;5.562;2023-04-01T04:19:06;99189.75;;;7.91;100.00
59513;BME280;45330;51.634;5.562;2023-04-01T04:21:32;99186.38;;;7.89;100.00
59513;BME280;45330;51.634;5.562;2023-04-01T04:24:01;99213.75;;;7.99;100.00
59513;BME280;45330;51.634;5.562;2023-04-01T04:26:27;99196.81;;;7.84;100.00
59513;BME280;45330;51.634;5.562;2023-04-01T04:28:54;99197.69;;;7.85;100.00
59513;BME280;45330;51.634;5.562;2023-04-01T04:31:24;99215.56;;;7.96;100.00
59513;BME280;45330;51.634;5.562;2023-04-01T04:33:49;99219.06;;;7.95;100.00
59513;BME280;45330;51.634;5.562;2023-04-01T04:36:15;99208.94;;;7.82;100.00
59513;BME280;45330;51.634;5.562;2023-04-01T04:38:40;99219.06;;;7.93;100.00
59513;BME280;45330;51.634;5.562;2023-04-01T04:41:10;99222.56;;;7.92;100.00
59513;BME280;45330;51.634;5.562;2023-04-01T04:43:37;99225.97;;;7.93;100.00
59513;BME280;45330;51.634;5.562;2023-04-01T04:46:09;99222.63;;;7.87;100.00
59513;BME280;45330;51.634;5.562;2023-04-01T04:48:36;99224.34;;;7.88;100.00
59513;BME280;45330;51.634;5.562;2023-04-01T04:51:01;99226.91;;;7.90;100.00
59513;BME280;45330;51.634;5.562;2023-04-01T04:53:27;99205.63;;;7.76;100.00
59513;BME280;45330;51.634;5.562;2023-04-01T04:55:53;99245.97;;;7.86;100.00
59513;BME280;45330;51.634;5.562;2023-04-01T04:58:18;99234.88;;;7.81;100.00
59513;BME280;45330;51.634;5.562;2023-04-01T05:00:44;99239.09;;;7.85;100.00
59513;BME280;45330;51.634;5.562;2023-04-01T05:03:10;99254.63;;;7.86;100.00
59513;BME280;45330;51.634;5.562;2023-04-01T05:05:36;99254.56;;;7.88;100.00
59513;BME280;45330;51.634;5.562;2023-04-01T05:08:01;99241.00;;;7.77;100.00
59513;BME280;45330;51.634;5.562;2023-04-01T05:10:27;99265.78;;;7.88;100.00
59513;BME280;45330;51.634;5.562;2023-04-01T05:12:53;99245.28;;;7.79;100.00
59513;BME280;45330;51.634;5.562;2023-04-01T05:15:18;99258.22;;;7.78;100.00
59513;BME280;45330;51.634;5.562;2023-04-01T05:17:43;99259.94;;;7.79;100.00
59513;BME280;45330;51.634;5.562;2023-04-01T05:20:12;99273.50;;;7.90;100.00
59513;BME280;45330;51.634;5.562;2023-04-01T05:22:37;99242.97;;;7.65;100.00
59513;BME280;45330;51.634;5.562;2023-04-01T05:25:03;99274.41;;;7.87;100.00
59513;BME280;45330;51.634;5.562;2023-04-01T05:27:28;99256.53;;;7.77;100.00
59513;BME280;45330;51.634;5.562;2023-04-01T05:29:53;99275.38;;;7.85;100.00
59513;BME280;45330;51.634;5.562;2023-04-01T05:32:19;99302.84;;;7.92;100.00
59513;BME280;45330;51.634;5.562;2023-04-01T05:34:44;99284.00;;;7.84;100.00
59513;BME280;45330;51.634;5.562;2023-04-01T05:37:10;99274.63;;;7.78;100.00
59513;BME280;45330;51.634;5.562;2023-04-01T05:39:37;99278.06;;;7.79;100.00
59513;BME280;45330;51.634;5.562;2023-04-01T05:42:03;99289.19;;;7.84;100.00
59513;BME280;45330;51.634;5.562;2023-04-01T05:44:30;99302.84;;;7.92;100.00
59513;BME280;45330;51.634;5.562;2023-04-01T05:46:55;99296.09;;;7.85;100.00
59513;BME280;45330;51.634;5.562;2023-04-01T05:49:21;99294.34;;;7.85;100.00
59513;BME280;45330;51.634;5.562;2023-04-01T05:51:46;99299.41;;;7.90;100.00
59513;BME280;45330;51.634;5.562;2023-04-01T05:54:11;99319.09;;;8.00;100.00
59513;BME280;45330;51.634;5.562;2023-04-01T05:56:37;99324.22;;;8.02;100.00
59513;BME280;45330;51.634;5.562;2023-04-01T05:59:02;99325.94;;;8.01;100.00
59513;BME280;45330;51.634;5.562;2023-04-01T06:01:28;99326.03;;;7.98;100.00
59513;BME280;45330;51.634;5.562;2023-04-01T06:03:53;99322.56;;;7.99;100.00
59513;BME280;45330;51.634;5.562;2023-04-01T06:06:27;99342.25;;;8.06;100.00
59513;BME280;45330;51.634;5.562;2023-04-01T06:08:56;99314.84;;;7.96;100.00
59513;BME280;45330;51.634;5.562;2023-04-01T06:11:43;99349.91;;;8.13;100.00
59513;BME280;45330;51.634;5.562;2023-04-01T06:14:31;99327.69;;;8.01;100.00
59513;BME280;45330;51.634;5.562;2023-04-01T06:17:22;99355.91;;;8.15;100.00
59513;BME280;45330;51.634;5.562;2023-04-01T06:25:56;99363.59;;;8.19;100.00
59513;BME280;45330;51.634;5.562;2023-04-01T06:33:05;99384.84;;;8.35;100.00
59513;BME280;45330;51.634;5.562;2023-04-01T06:35:53;99393.47;;;8.37;100.00
59513;BME280;45330;51.634;5.562;2023-04-01T06:39:27;99395.91;;;8.44;100.00
59513;BME280;45330;51.634;5.562;2023-04-01T06:41:50;99392.38;;;8.49;100.00
59513;BME280;45330;51.634;5.562;2023-04-01T06:49:51;99400.22;;;8.46;100.00
59513;BME280;45330;51.634;5.562;2023-04-01T06:52:31;99400.16;;;8.49;100.00
59513;BME280;45330;51.634;5.562;2023-04-01T06:57:53;99409.69;;;8.49;100.00
59513;BME280;45330;51.634;5.562;2023-04-01T07:00:31;99414.88;;;8.49;100.00
59513;BME280;45330;51.634;5.562;2023-04-01T07:03:15;99423.47;;;8.51;100.00
59513;BME280;45330;51.634;5.562;2023-04-01T07:05:42;99428.63;;;8.51;100.00
59513;BME280;45330;51.634;5.562;2023-04-01T07:08:12;99404.69;;;8.38;100.00
59513;BME280;45330;51.634;5.562;2023-04-01T07:10:50;99430.34;;;8.52;100.00
59513;BME280;45330;51.634;5.562;2023-04-01T07:13:28;99437.25;;;8.53;100.00
59513;BME280;45330;51.634;5.562;2023-04-01T07:16:03;99432.84;;;8.58;100.00
59513;BME280;45330;51.634;5.562;2023-04-01T07:18:57;99439.69;;;8.61;100.00
59513;BME280;45330;51.634;5.562;2023-04-01T07:21:44;99427.91;;;8.44;100.00
59513;BME280;45330;51.634;5.562;2023-04-01T07:24:33;99460.53;;;8.56;100.00
59513;BME280;45330;51.634;5.562;2023-04-01T07:26:59;99455.41;;;8.53;100.00
59513;BME280;45330;51.634;5.562;2023-04-01T07:29:25;99437.47;;;8.40;100.00
59513;BME280;45330;51.634;5.562;2023-04-01T07:37:17;99451.16;;;8.49;100.00
59513;BME280;45330;51.634;5.562;2023-04-01T07:40:12;99473.38;;;8.61;100.00
59513;BME280;45330;51.634;5.562;2023-04-01T07:48:33;99481.63;;;8.81;100.00
59513;BME280;45330;51.634;5.562;2023-04-01T07:57:34;99488.88;;;9.07;100.00
59513;BME280;45330;51.634;5.562;2023-04-01T08:05:28;99480.53;;;8.93;100.00
59513;BME280;45330;51.634;5.562;2023-04-01T08:08:23;99488.31;;;8.91;100.00
59513;BME280;45330;51.634;5.562;2023-04-01T08:10:57;99501.13;;;8.99;100.00
59513;BME280;45330;51.634;5.562;2023-04-01T08:13:46;99512.31;;;9.01;100.00
59513;BME280;45330;51.634;5.562;2023-04-01T08:16:56;99520.16;;;9.00;100.00
59513;BME280;45330;51.634;5.562;2023-04-01T08:19:43;99523.66;;;8.97;100.00
59513;BME280;45330;51.634;5.562;2023-04-01T08:22:26;99508.22;;;8.91;100.00
59513;BME280;45330;51.634;5.562;2023-04-01T08:24:54;99522.06;;;8.90;100.00
59513;BME280;45330;51.634;5.562;2023-04-01T08:27:41;99509.06;;;8.91;100.00
59513;BME280;45330;51.634;5.562;2023-04-01T08:30:26;99528.84;;;8.99;100.00
59513;BME280;45330;51.634;5.562;2023-04-01T08:32:56;99539.16;;;9.02;100.00
59513;BME280;45330;51.634;5.562;2023-04-01T08:35:39;99532.50;;;8.88;100.00
59513;BME280;45330;51.634;5.562;2023-04-01T08:38:12;99521.38;;;8.83;100.00
59513;BME280;45330;51.634;5.562;2023-04-01T08:46:27;99556.81;;;8.83;100.00
59513;BME280;45330;51.634;5.562;2023-04-01T08:54:48;99574.59;;;9.01;100.00
59513;BME280;45330;51.634;5.562;2023-04-01T08:57:45;99560.16;;;8.89;100.00
59513;BME280;45330;51.634;5.562;2023-04-01T09:06:10;99585.81;;;9.03;100.00
59513;BME280;45330;51.634;5.562;2023-04-01T09:25:15;99598.22;;;8.89;100.00
59513;BME280;45330;51.634;5.562;2023-04-01T09:27:45;99620.28;;;9.08;100.00
59513;BME280;45330;51.634;5.562;2023-04-01T09:30:39;99630.69;;;9.08;100.00
59513;BME280;45330;51.634;5.562;2023-04-01T09:35:50;99627.13;;;9.13;100.00
59513;BME280;45330;51.634;5.562;2023-04-01T09:38:55;99628.09;;;9.08;100.00
59513;BME280;45330;51.634;5.562;2023-04-01T09:44:20;99632.41;;;9.09;100.00
59513;BME280;45330;51.634;5.562;2023-04-01T09:55:19;99648.50;;;9.27;100.00
59513;BME280;45330;51.634;5.562;2023-04-01T10:03:49;99649.38;;;9.26;100.00
59513;BME280;45330;51.634;5.562;2023-04-01T10:14:41;99671.50;;;9.46;100.00
59513;BME280;45330;51.634;5.562;2023-04-01T10:17:27;99672.94;;;9.59;100.00
59513;BME280;45330;51.634;5.562;2023-04-01T10:20:44;99685.13;;;9.57;100.00
59513;BME280;45330;51.634;5.562;2023-04-01T10:23:33;99681.69;;;9.55;100.00
59513;BME280;45330;51.634;5.562;2023-04-01T10:51:40;99702.34;;;9.61;100.00
59513;BME280;45330;51.634;5.562;2023-04-01T10:54:40;99668.88;;;9.47;100.00
59513;BME280;45330;51.634;5.562;2023-04-01T11:00:11;99709.97;;;9.69;100.00
59513;BME280;45330;51.634;5.562;2023-04-01T11:25:36;99737.59;;;9.73;100.00
59513;BME280;45330;51.634;5.562;2023-04-01T11:33:46;99743.50;;;9.81;100.00
59513;BME280;45330;51.634;5.562;2023-04-01T11:44:33;99736.88;;;10.07;100.00
59513;BME280;45330;51.634;5.562;2023-04-01T11:53:16;99759.50;;;10.03;100.00
59513;BME280;45330;51.634;5.562;2023-04-01T12:01:52;99771.81;;;9.93;100.00
59513;BME280;45330;51.634;5.562;2023-04-01T12:15:11;99789.38;;;9.82;100.00
59513;BME280;45330;51.634;5.562;2023-04-01T12:17:39;99791.09;;;9.83;100.00
59513;BME280;45330;51.634;5.562;2023-04-01T12:22:52;99776.50;;;9.76;100.00
59513;BME280;45330;51.634;5.562;2023-04-01T12:28:49;99801.84;;;10.08;100.00
59513;BME280;45330;51.634;5.562;2023-04-01T12:31:38;99808.69;;;10.11;100.00
59513;BME280;45330;51.634;5.562;2023-04-01T12:50:10;99832.22;;;10.05;100.00
59513;BME280;45330;51.634;5.562;2023-04-01T12:52:58;99832.31;;;10.02;100.00
59513;BME280;45330;51.634;5.562;2023-04-01T13:04:02;99839.28;;;9.98;100.00
59513;BME280;45330;51.634;5.562;2023-04-01T13:06:52;99847.16;;;9.95;100.00
59513;BME280;45330;51.634;5.562;2023-04-01T13:17:22;99860.31;;;9.87;100.00
59513;BME280;45330;51.634;5.562;2023-04-01T13:28:23;99863.94;;;10.24;100.00
59513;BME280;45330;51.634;5.562;2023-04-01T13:42:04;99855.72;;;10.00;100.00
59513;BME280;45330;51.634;5.562;2023-04-01T13:44:36;99895.53;;;10.02;100.00
59513;BME280;45330;51.634;5.562;2023-04-01T13:58:24;99906.25;;;9.85;100.00
59513;BME280;45330;51.634;5.562;2023-04-01T14:01:15;99901.13;;;9.81;100.00
59513;BME280;45330;51.634;5.562;2023-04-01T14:04:03;99916.75;;;9.79;100.00
59513;BME280;45330;51.634;5.562;2023-04-01T14:26:05;99921.72;;;9.93;100.00
59513;BME280;45330;51.634;5.562;2023-04-01T14:28:53;99923.28;;;10.02;100.00
59513;BME280;45330;51.634;5.562;2023-04-01T14:48:30;99951.88;;;10.00;100.00
59513;BME280;45330;51.634;5.562;2023-04-01T14:51:03;99950.22;;;9.96;100.00
59513;BME280;45330;51.634;5.562;2023-04-01T14:53:36;99946.03;;;9.89;100.00
59513;BME280;45330;51.634;5.562;2023-04-01T14:56:07;99949.47;;;9.89;100.00
59513;BME280;45330;51.634;5.562;2023-04-01T15:11:48;99981.84;;;9.70;100.00
59513;BME280;45330;51.634;5.562;2023-04-01T15:17:53;99965.72;;;9.51;100.00
59513;BME280;45330;51.634;5.562;2023-04-01T15:26:09;100002.72;;;9.65;100.00
59513;BME280;45330;51.634;5.562;2023-04-01T15:43:26;100000.44;;;9.43;100.00
59513;BME280;45330;51.634;5.562;2023-04-01T15:45:49;100009.88;;;9.49;100.00
59513;BME280;45330;51.634;5.562;2023-04-01T15:48:37;100005.66;;;9.40;100.00
59513;BME280;45330;51.634;5.562;2023-04-01T15:51:15;100017.69;;;9.48;100.00
59513;BME280;45330;51.634;5.562;2023-04-01T15:59:26;100026.38;;;9.47;100.00
59513;BME280;45330;51.634;5.562;2023-04-01T16:02:07;100022.94;;;9.44;100.00
59513;BME280;45330;51.634;5.562;2023-04-01T16:05:02;100029.78;;;9.49;100.00
59513;BME280;45330;51.634;5.562;2023-04-01T16:22:02;100033.25;;;9.51;100.00
59513;BME280;45330;51.634;5.562;2023-04-01T16:24:35;100017.88;;;9.35;100.00
59513;BME280;45330;51.634;5.562;2023-04-01T16:27:29;100017.94;;;9.31;100.00
59513;BME280;45330;51.634;5.562;2023-04-01T16:30:25;100038.50;;;9.44;100.00
59513;BME280;45330;51.634;5.562;2023-04-01T16:35:59;100046.41;;;9.37;100.00
59513;BME280;45330;51.634;5.562;2023-04-01T16:43:42;100073.19;;;9.40;100.00
59513;BME280;45330;51.634;5.562;2023-04-01T16:46:41;100078.38;;;9.40;100.00
59513;BME280;45330;51.634;5.562;2023-04-01T16:59:35;100095.69;;;9.41;100.00
59513;BME280;45330;51.634;5.562;2023-04-01T17:02:09;100116.31;;;9.52;100.00
59513;BME280;45330;51.634;5.562;2023-04-01T17:04:47;100118.94;;;9.51;100.00
59513;BME280;45330;51.634;5.562;2023-04-01T17:07:40;100128.47;;;9.50;100.00
59513;BME280;45330;51.634;5.562;2023-04-01T17:10:36;100133.63;;;9.52;100.00
59513;BME280;45330;51.634;5.562;2023-04-01T17:15:52;100146.66;;;9.49;100.00
59513;BME280;45330;51.634;5.562;2023-04-01T17:21:19;100149.34;;;9.42;100.00
59513;BME280;45330;51.634;5.562;2023-04-01T17:26:53;100154.59;;;9.36;100.00
59513;BME280;45330;51.634;5.562;2023-04-01T17:41:08;100173.06;;;9.12;100.00
59513;BME280;45330;51.634;5.562;2023-04-01T17:43:42;100207.38;;;9.38;100.00
59513;BME280;45330;51.634;5.562;2023-04-01T17:52:18;100225.78;;;9.17;100.00
59513;BME280;45330;51.634;5.562;2023-04-01T17:54:56;100221.56;;;9.06;100.00
59513;BME280;45330;51.634;5.562;2023-04-01T18:05:30;100257.81;;;9.13;100.00
59513;BME280;45330;51.634;5.562;2023-04-01T18:08:12;100268.25;;;9.09;100.00
59513;BME280;45330;51.634;5.562;2023-04-01T18:14:03;100280.38;;;9.09;100.00
59513;BME280;45330;51.634;5.562;2023-04-01T18:16:40;100288.19;;;9.07;100.00
59513;BME280;45330;51.634;5.562;2023-04-01T18:19:30;100288.19;;;9.03;100.00
59513;BME280;45330;51.634;5.562;2023-04-01T18:22:18;100288.22;;;9.04;100.00
59513;BME280;45330;51.634;5.562;2023-04-01T18:24:59;100309.84;;;9.02;100.00
59513;BME280;45330;51.634;5.562;2023-04-01T18:27:31;100316.03;;;8.85;100.00
59513;BME280;45330;51.634;5.562;2023-04-01T18:30:14;100327.22;;;8.92;100.00
59513;BME280;45330;51.634;5.562;2023-04-01T18:32:53;100309.25;;;8.64;100.00
59513;BME280;45330;51.634;5.562;2023-04-01T18:35:49;100340.34;;;8.69;100.00
59513;BME280;45330;51.634;5.562;2023-04-01T18:38:31;100329.22;;;8.51;100.00
59513;BME280;45330;51.634;5.562;2023-04-01T18:41:13;100327.53;;;8.47;100.00
59513;BME280;45330;51.634;5.562;2023-04-01T18:49:58;100379.31;;;8.60;100.00
59513;BME280;45330;51.634;5.562;2023-04-01T18:52:35;100394.06;;;8.40;100.00
59513;BME280;45330;51.634;5.562;2023-04-01T18:57:48;100389.81;;;8.19;100.00
59513;BME280;45330;51.634;5.562;2023-04-01T19:00:26;100399.31;;;8.23;100.00
59513;BME280;45330;51.634;5.562;2023-04-01T19:05:48;100390.72;;;8.12;100.00
59513;BME280;45330;51.634;5.562;2023-04-01T19:08:27;100425.22;;;8.31;100.00
59513;BME280;45330;51.634;5.562;2023-04-01T19:13:38;100426.13;;;8.15;100.00
59513;BME280;45330;51.634;5.562;2023-04-01T19:30:23;100482.31;;;7.93;100.00
59513;BME280;45330;51.634;5.562;2023-04-01T19:38:53;100471.97;;;7.76;100.00
59513;BME280;45330;51.634;5.562;2023-04-01T19:41:29;100491.84;;;7.80;100.00
59513;BME280;45330;51.634;5.562;2023-04-01T19:46:51;100466.78;;;7.63;100.00
59513;BME280;45330;51.634;5.562;2023-04-01T19:52:33;100482.31;;;7.63;100.00
59513;BME280;45330;51.634;5.562;2023-04-01T19:55:37;100515.13;;;7.80;100.00
59513;BME280;45330;51.634;5.562;2023-04-01T20:05:46;100544.47;;;7.66;100.00
59513;BME280;45330;51.634;5.562;2023-04-01T20:08:25;100548.81;;;7.58;100.00
59513;BME280;45330;51.634;5.562;2023-04-01T20:13:48;100560.00;;;7.55;100.00
59513;BME280;45330;51.634;5.562;2023-04-01T20:16:18;100565.19;;;7.54;100.00
59513;BME280;45330;51.634;5.562;2023-04-01T20:18:57;100558.28;;;7.47;100.00
59513;BME280;45330;51.634;5.562;2023-04-01T20:21:31;100572.06;;;7.49;100.00
59513;BME280;45330;51.634;5.562;2023-04-01T20:26:41;100580.69;;;7.38;100.00
59513;BME280;45330;51.634;5.562;2023-04-01T20:37:44;100606.53;;;7.32;100.00
59513;BME280;45330;51.634;5.562;2023-04-01T20:40:50;100596.22;;;7.37;100.00
59513;BME280;45330;51.634;5.562;2023-04-01T20:43:40;100606.53;;;7.28;100.00
59513;BME280;45330;51.634;5.562;2023-04-01T20:51:43;100634.09;;;7.21;100.00
59513;BME280;45330;51.634;5.562;2023-04-01T20:54:32;100643.59;;;7.19;100.00
59513;BME280;45330;51.634;5.562;2023-04-01T20:57:15;100640.13;;;7.12;100.00
59513;BME280;45330;51.634;5.562;2023-04-01T21:00:26;100628.84;;;6.96;100.00
59513;BME280;45330;51.634;5.562;2023-04-01T21:11:28;100677.09;;;6.93;100.00
59513;BME280;45330;51.634;5.562;2023-04-01T21:17:10;100696.84;;;6.83;100.00
59513;BME280;45330;51.634;5.562;2023-04-01T21:27:55;100720.91;;;6.71;100.00
59513;BME280;45330;51.634;5.562;2023-04-01T21:31:21;100731.22;;;6.68;100.00
59513;BME280;45330;51.634;5.562;2023-04-01T21:36:08;100738.06;;;6.61;100.00
59513;BME280;45330;51.634;5.562;2023-04-01T21:41:27;100747.63;;;6.70;100.00
59513;BME280;45330;51.634;5.562;2023-04-01T21:58:22;100778.53;;;6.59;100.00
59513;BME280;45330;51.634;5.562;2023-04-01T22:09:02;100801.47;;;6.25;100.00
59513;BME280;45330;51.634;5.562;2023-04-01T22:16:59;100822.97;;;6.21;100.00
59513;BME280;45330;51.634;5.562;2023-04-01T22:19:56;100821.16;;;6.14;100.00
59513;BME280;45330;51.634;5.562;2023-04-01T22:22:58;100839.28;;;6.18;100.00
59513;BME280;45330;51.634;5.562;2023-04-01T22:30:56;100837.47;;;6.10;100.00
59513;BME280;45330;51.634;5.562;2023-04-01T22:36:29;100852.09;;;6.08;100.00
59513;BME280;45330;51.634;5.562;2023-04-01T22:52:44;100875.97;;;5.93;100.00
59513;BME280;45330;51.634;5.562;2023-04-01T22:55:18;100859.44;;;5.80;100.00
59513;BME280;45330;51.634;5.562;2023-04-01T22:58:00;100895.63;;;5.83;100.00
59513;BME280;45330;51.634;5.562;2023-04-01T23:00:29;100897.28;;;5.78;100.00